Time,TemperatureF,DewpointF,PressureIn,WindDirection,WindDirectionDegrees,WindSpeedMPH,WindSpeedGustMPH,Humidity,HourlyPrecipIn,Conditions,Clouds,dailyrainin,SoftwareType,DateUTC
2013-06-24 00:02:00,74.6,69.0,29.98,ESE,107,6.8,6.8,82,-99.99,,,-99.99,PWS SA v1.10,2013-06-24 04:02:00,
2013-06-24 00:08:00,74.4,68.6,29.98,North,0,0.0,6.0,82,-99.99,,,-99.99,PWS SA v1.10,2013-06-24 04:08:00,
2013-06-24 00:12:00,74.3,68.6,29.98,WNW,298,3.4,6.0,82,-99.99,,,-99.99,PWS SA v1.10,2013-06-24 04:12:00,
2013-06-24 00:18:00,74.2,68.6,29.98,North,0,0.0,3.0,82,-99.99,,,-99.99,PWS SA v1.10,2013-06-24 04:18:00,
2013-06-24 00:22:00,74.1,68.5,29.98,North,0,0.0,3.0,82,-99.99,,,-99.99,PWS SA v1.10,2013-06-24 04:22:00,
2013-06-24 00:26:00,74.1,68.6,29.98,North,0,0.0,3.0,83,-99.99,,,-99.99,PWS SA v1.10,2013-06-24 04:26:00,
2013-06-24 00:32:00,74.0,68.7,29.98,North,0,0.0,1.0,83,-99.99,,,-99.99,PWS SA v1.10,2013-06-24 04:32:00,
2013-06-24 00:38:00,74.0,68.7,29.98,North,0,0.0,1.0,83,-99.99,,,-99.99,PWS SA v1.10,2013-06-24 04:38:00,
2013-06-24 00:44:00,73.9,68.6,29.98,North,0,0.0,1.0,83,-99.99,,,-99.99,PWS SA v1.10,2013-06-24 04:44:00,
2013-06-24 00:50:00,73.7,68.6,29.98,North,0,0.0,1.0,84,-99.99,,,-99.99,PWS SA v1.10,2013-06-24 04:50:00,
2013-06-24 00:56:00,73.6,68.5,29.97,West,264,1.7,1.7,84,-99.99,,,-99.99,PWS SA v1.10,2013-06-24 04:56:00,
2013-06-24 01:02:00,73.5,68.4,29.97,North,0,0.0,1.0,84,-99.99,,,-99.99,PWS SA v1.10,2013-06-24 05:02:00,
2013-06-24 01:08:00,73.5,68.8,29.97,North,0,0.0,1.0,85,-99.99,,,-99.99,PWS SA v1.10,2013-06-24 05:08:00,
2013-06-24 01:14:00,73.5,68.8,29.97,North,0,0.0,1.0,85,-99.99,,,-99.99,PWS SA v1.10,2013-06-24 05:14:00,
2013-06-24 01:20:00,73.3,68.7,29.97,North,0,0.0,1.0,85,-99.99,,,-99.99,PWS SA v1.10,2013-06-24 05:20:00,
2013-06-24 01:26:00,73.2,68.8,29.97,North,0,0.0,1.0,85,-99.99,,,-99.99,PWS SA v1.10,2013-06-24 05:26:00,
2013-06-24 01:32:00,73.2,68.8,29.97,North,0,0.0,1.0,85,-99.99,,,-99.99,PWS SA v1.10,2013-06-24 05:32:00,
2013-06-24 01:38:00,73.1,68.7,29.97,North,0,0.0,1.0,86,-99.99,,,-99.99,PWS SA v1.10,2013-06-24 05:38:00,
2013-06-24 01:44:00,73.1,68.8,29.96,North,0,0.0,1.0,86,-99.99,,,-99.99,PWS SA v1.10,2013-06-24 05:44:00,
2013-06-24 01:50:00,73.0,69.0,29.97,North,0,0.0,1.0,87,-99.99,,,-99.99,PWS SA v1.10,2013-06-24 05:50:00,
2013-06-24 01:56:00,72.9,69.0,29.96,North,0,0.0,1.0,86,-99.99,,,-99.99,PWS SA v1.10,2013-06-24 05:56:00,
2013-06-24 02:02:00,72.7,68.9,29.96,North,0,0.0,1.0,87,-99.99,,,-99.99,PWS SA v1.10,2013-06-24 06:02:00,
2013-06-24 02:08:00,72.7,69.0,29.96,North,0,0.0,0.0,87,-99.99,,,-99.99,PWS SA v1.10,2013-06-24 06:08:00,
2013-06-24 02:16:00,72.4,69.0,29.96,North,0,0.0,0.0,88,-99.99,,,-99.99,PWS SA v1.10,2013-06-24 06:16:00,
2013-06-24 02:22:00,72.4,69.1,29.96,North,0,0.0,1.0,89,-99.99,,,-99.99,PWS SA v1.10,2013-06-24 06:22:00,
2013-06-24 02:28:00,72.3,69.0,29.96,North,0,0.0,1.0,89,-99.99,,,-99.99,PWS SA v1.10,2013-06-24 06:28:00,
2013-06-24 02:34:00,72.1,69.0,29.96,North,0,0.0,1.0,90,-99.99,,,-99.99,PWS SA v1.10,2013-06-24 06:34:00,
2013-06-24 02:40:00,72.0,69.1,29.95,North,0,0.0,1.0,90,-99.99,,,-99.99,PWS SA v1.10,2013-06-24 06:40:00,
2013-06-24 02:46:00,71.9,69.2,29.96,North,0,0.0,1.0,90,-99.99,,,-99.99,PWS SA v1.10,2013-06-24 06:46:00,
2013-06-24 02:52:00,71.9,68.8,29.95,West,270,1.7,1.7,90,-99.99,,,-99.99,PWS SA v1.10,2013-06-24 06:52:00,
2013-06-24 02:58:00,71.8,69.5,29.95,North,0,0.0,5.0,91,-99.99,,,-99.99,PWS SA v1.10,2013-06-24 06:58:00,
2013-06-24 03:06:00,71.8,69.2,29.96,North,0,0.0,5.0,91,-99.99,,,-99.99,PWS SA v1.10,2013-06-24 07:06:00,
2013-06-24 03:12:00,71.7,69.2,29.95,North,0,0.0,1.0,91,-99.99,,,-99.99,PWS SA v1.10,2013-06-24 07:12:00,
2013-06-24 03:18:00,71.7,69.4,29.95,SSE,154,1.7,1.7,92,-99.99,,,-99.99,PWS SA v1.10,2013-06-24 07:18:00,
2013-06-24 03:24:00,71.5,69.1,29.96,ESE,112,1.7,1.7,92,-99.99,,,-99.99,PWS SA v1.10,2013-06-24 07:24:00,
2013-06-24 03:30:00,71.6,69.3,29.95,North,0,0.0,1.0,92,-99.99,,,-99.99,PWS SA v1.10,2013-06-24 07:30:00,
2013-06-24 03:36:00,71.6,69.3,29.95,North,0,0.0,1.0,92,-99.99,,,-99.99,PWS SA v1.10,2013-06-24 07:36:00,
2013-06-24 03:42:00,71.4,69.0,29.96,North,0,0.0,3.0,92,-99.99,,,-99.99,PWS SA v1.10,2013-06-24 07:42:00,
2013-06-24 03:48:00,71.3,68.9,29.95,North,0,0.0,3.0,92,-99.99,,,-99.99,PWS SA v1.10,2013-06-24 07:48:00,
2013-06-24 03:54:00,71.3,69.2,29.95,North,0,0.0,1.0,93,-99.99,,,-99.99,PWS SA v1.10,2013-06-24 07:54:00,
2013-06-24 04:00:00,71.2,69.2,29.95,North,0,0.0,3.0,93,-99.99,,,-99.99,PWS SA v1.10,2013-06-24 08:00:00,
2013-06-24 04:06:00,71.2,69.2,29.94,North,0,0.0,3.0,93,-99.99,,,-99.99,PWS SA v1.10,2013-06-24 08:06:00,
2013-06-24 04:12:00,71.0,69.2,29.94,North,0,0.0,3.0,93,-99.99,,,-99.99,PWS SA v1.10,2013-06-24 08:12:00,
2013-06-24 04:18:00,71.0,69.1,29.94,SE,140,3.4,3.4,93,-99.99,,,-99.99,PWS SA v1.10,2013-06-24 08:18:00,
2013-06-24 04:24:00,70.9,69.4,29.94,North,0,0.0,3.0,94,-99.99,,,-99.99,PWS SA v1.10,2013-06-24 08:24:00,
2013-06-24 04:30:00,70.8,69.5,29.93,North,0,0.0,3.0,94,-99.99,,,-99.99,PWS SA v1.10,2013-06-24 08:30:00,
2013-06-24 04:36:00,70.8,69.5,29.93,North,0,0.0,0.0,95,-99.99,,,-99.99,PWS SA v1.10,2013-06-24 08:36:00,
2013-06-24 04:42:00,70.7,69.6,29.94,North,0,0.0,0.0,96,-99.99,,,-99.99,PWS SA v1.10,2013-06-24 08:42:00,
2013-06-24 04:48:00,70.5,69.4,29.93,North,0,0.0,0.0,96,-99.99,,,-99.99,PWS SA v1.10,2013-06-24 08:48:00,
2013-06-24 04:54:00,70.5,69.2,29.93,North,0,0.0,0.0,95,-99.99,,,-99.99,PWS SA v1.10,2013-06-24 08:54:00,
2013-06-24 05:02:00,70.5,69.2,29.93,North,0,0.0,0.0,95,-99.99,,,-99.99,PWS SA v1.10,2013-06-24 09:02:00,
2013-06-24 05:08:00,70.5,69.5,29.93,North,0,0.0,0.0,96,-99.99,,,-99.99,PWS SA v1.10,2013-06-24 09:08:00,
2013-06-24 05:14:00,70.4,69.3,29.93,North,0,0.0,0.0,96,-99.99,,,-99.99,PWS SA v1.10,2013-06-24 09:14:00,
2013-06-24 05:22:00,70.4,69.2,29.93,North,0,0.0,1.0,96,-99.99,,,-99.99,PWS SA v1.10,2013-06-24 09:22:00,
2013-06-24 05:28:00,70.4,69.4,29.93,North,0,0.0,1.0,96,-99.99,,,-99.99,PWS SA v1.10,2013-06-24 09:28:00,
2013-06-24 05:34:00,70.4,69.4,29.93,North,0,0.0,1.0,97,-99.99,,,-99.99,PWS SA v1.10,2013-06-24 09:34:00,
2013-06-24 05:40:00,70.4,69.5,29.93,North,0,0.0,0.0,97,-99.99,,,-99.99,PWS SA v1.10,2013-06-24 09:40:00,
2013-06-24 05:46:00,70.5,69.5,29.93,North,0,0.0,0.0,97,-99.99,,,-99.99,PWS SA v1.10,2013-06-24 09:46:00,
2013-06-24 05:52:00,70.5,69.7,29.93,North,0,0.0,0.0,97,-99.99,,,-99.99,PWS SA v1.10,2013-06-24 09:52:00,
2013-06-24 05:58:00,70.6,69.7,29.93,North,0,0.0,0.0,97,-99.99,,,-99.99,PWS SA v1.10,2013-06-24 09:58:00,
2013-06-24 06:04:00,70.5,69.6,29.93,North,0,0.0,3.0,97,-99.99,,,-99.99,PWS SA v1.10,2013-06-24 10:04:00,
2013-06-24 06:12:00,70.7,69.8,29.93,North,0,0.0,3.0,97,-99.99,,,-99.99,PWS SA v1.10,2013-06-24 10:12:00,
2013-06-24 06:20:00,70.8,69.7,29.93,North,0,0.0,3.0,96,-99.99,,,-99.99,PWS SA v1.10,2013-06-24 10:20:00,
2013-06-24 06:26:00,70.8,69.8,29.93,North,0,0.0,1.0,96,-99.99,,,-99.99,PWS SA v1.10,2013-06-24 10:26:00,
2013-06-24 06:32:00,71.2,69.9,29.93,North,0,0.0,0.0,96,-99.99,,,-99.99,PWS SA v1.10,2013-06-24 10:32:00,
2013-06-24 06:38:00,71.3,69.7,29.93,SE,139,1.7,1.7,95,-99.99,,,-99.99,PWS SA v1.10,2013-06-24 10:38:00,
2013-06-24 06:44:00,71.5,70.2,29.93,North,0,0.0,1.0,96,-99.99,,,-99.99,PWS SA v1.10,2013-06-24 10:44:00,
2013-06-24 06:50:00,71.7,70.3,29.94,North,0,0.0,1.0,96,-99.99,,,-99.99,PWS SA v1.10,2013-06-24 10:50:00,
2013-06-24 06:56:00,71.8,70.2,29.93,North,0,0.0,3.0,95,-99.99,,,-99.99,PWS SA v1.10,2013-06-24 10:56:00,
2013-06-24 07:02:00,72.2,70.7,29.94,NNW,330,1.7,3.0,95,-99.99,,,-99.99,PWS SA v1.10,2013-06-24 11:02:00,
2013-06-24 07:08:00,72.4,70.2,29.93,North,0,0.0,3.0,94,-99.99,,,-99.99,PWS SA v1.10,2013-06-24 11:08:00,
2013-06-24 07:14:00,72.6,70.5,29.94,North,0,0.0,3.0,94,-99.99,,,-99.99,PWS SA v1.10,2013-06-24 11:14:00,
2013-06-24 07:20:00,72.8,70.5,29.94,North,0,0.0,3.0,93,-99.99,,,-99.99,PWS SA v1.10,2013-06-24 11:20:00,
2013-06-24 07:28:00,73.2,70.9,29.93,North,0,0.0,3.0,93,-99.99,,,-99.99,PWS SA v1.10,2013-06-24 11:28:00,
2013-06-24 07:34:00,73.3,70.8,29.93,SW,222,1.7,3.0,92,-99.99,,,-99.99,PWS SA v1.10,2013-06-24 11:34:00,
2013-06-24 07:40:00,73.8,71.0,29.94,North,0,0.0,3.0,92,-99.99,,,-99.99,PWS SA v1.10,2013-06-24 11:40:00,
2013-06-24 07:46:00,74.2,70.9,29.94,North,0,0.0,3.0,91,-99.99,,,-99.99,PWS SA v1.10,2013-06-24 11:46:00,
2013-06-24 07:52:00,74.5,71.4,29.93,North,0,0.0,3.0,90,-99.99,,,-99.99,PWS SA v1.10,2013-06-24 11:52:00,
2013-06-24 07:58:00,74.8,71.5,29.93,North,0,0.0,3.0,90,-99.99,,,-99.99,PWS SA v1.10,2013-06-24 11:58:00,
2013-06-24 08:04:00,75.1,71.5,29.93,North,0,0.0,5.0,89,-99.99,,,-99.99,PWS SA v1.10,2013-06-24 12:04:00,
2013-06-24 08:10:00,75.4,71.4,29.93,North,0,0.0,5.0,89,-99.99,,,-99.99,PWS SA v1.10,2013-06-24 12:10:00,
2013-06-24 08:18:00,76.0,71.2,29.93,North,0,0.0,5.0,87,-99.99,,,-99.99,PWS SA v1.10,2013-06-24 12:18:00,
2013-06-24 08:24:00,76.6,71.5,29.93,North,0,0.0,5.0,86,-99.99,,,-99.99,PWS SA v1.10,2013-06-24 12:24:00,
2013-06-24 08:30:00,76.5,71.5,29.93,WSW,240,1.7,3.0,85,-99.99,,,-99.99,PWS SA v1.10,2013-06-24 12:30:00,
2013-06-24 08:36:00,76.9,71.2,29.93,WSW,244,1.7,3.0,84,-99.99,,,-99.99,PWS SA v1.10,2013-06-24 12:36:00,
2013-06-24 08:42:00,77.5,71.5,29.92,North,0,0.0,1.0,83,-99.99,,,-99.99,PWS SA v1.10,2013-06-24 12:42:00,
2013-06-24 08:48:00,77.7,71.8,29.93,North,0,0.0,1.0,83,-99.99,,,-99.99,PWS SA v1.10,2013-06-24 12:48:00,
2013-06-24 08:54:00,78.2,71.9,29.93,North,0,0.0,1.0,82,-99.99,,,-99.99,PWS SA v1.10,2013-06-24 12:54:00,
2013-06-24 09:00:00,78.5,71.7,29.93,North,0,0.0,3.0,81,-99.99,,,-99.99,PWS SA v1.10,2013-06-24 13:00:00,
2013-06-24 09:06:00,78.9,71.2,29.93,NNW,348,3.4,5.0,79,-99.99,,,-99.99,PWS SA v1.10,2013-06-24 13:06:00,
2013-06-24 09:14:00,79.5,71.8,29.93,NNW,332,1.7,5.0,78,-99.99,,,-99.99,PWS SA v1.10,2013-06-24 13:14:00,
2013-06-24 09:20:00,79.8,71.9,29.93,North,0,0.0,1.0,77,-99.99,,,-99.99,PWS SA v1.10,2013-06-24 13:20:00,
2013-06-24 09:26:00,80.3,72.0,29.93,North,0,0.0,1.0,77,-99.99,,,-99.99,PWS SA v1.10,2013-06-24 13:26:00,
2013-06-24 09:32:00,80.3,71.7,29.93,NE,45,1.7,3.0,75,-99.99,,,-99.99,PWS SA v1.10,2013-06-24 13:32:00,
2013-06-24 09:38:00,80.8,71.3,29.93,North,0,0.0,5.0,74,-99.99,,,-99.99,PWS SA v1.10,2013-06-24 13:38:00,
2013-06-24 09:46:00,81.2,71.7,29.93,North,0,0.0,5.0,73,-99.99,,,-99.99,PWS SA v1.10,2013-06-24 13:46:00,
2013-06-24 09:52:00,81.6,71.3,29.92,North,0,0.0,3.0,72,-99.99,,,-99.99,PWS SA v1.10,2013-06-24 13:52:00,
2013-06-24 09:58:00,81.8,71.5,29.92,North,0,0.0,3.0,72,-99.99,,,-99.99,PWS SA v1.10,2013-06-24 13:58:00,
2013-06-24 10:04:00,82.3,72.7,29.92,North,0,0.0,3.0,73,-99.99,,,-99.99,PWS SA v1.10,2013-06-24 14:04:00,
2013-06-24 10:12:00,82.8,72.1,29.92,North,0,0.0,3.0,71,-99.99,,,-99.99,PWS SA v1.10,2013-06-24 14:12:00,
2013-06-24 10:18:00,83.4,72.3,29.91,North,0,0.0,3.0,70,-99.99,,,-99.99,PWS SA v1.10,2013-06-24 14:18:00,
2013-06-24 10:24:00,83.1,72.3,29.91,North,0,0.0,3.0,70,-99.99,,,-99.99,PWS SA v1.10,2013-06-24 14:24:00,
2013-06-24 10:30:00,83.8,71.9,29.91,NNW,331,3.4,3.4,68,-99.99,,,-99.99,PWS SA v1.10,2013-06-24 14:30:00,
2013-06-24 10:38:00,84.1,71.7,29.92,WNW,303,3.4,6.0,67,-99.99,,,-99.99,PWS SA v1.10,2013-06-24 14:38:00,
2013-06-24 10:44:00,84.5,71.7,29.92,South,173,6.8,6.8,66,-99.99,,,-99.99,PWS SA v1.10,2013-06-24 14:44:00,
2013-06-24 10:50:00,84.7,71.8,29.91,North,0,0.0,6.0,66,-99.99,,,-99.99,PWS SA v1.10,2013-06-24 14:50:00,
2013-06-24 10:56:00,85.0,71.7,29.91,North,0,0.0,6.0,65,-99.99,,,-99.99,PWS SA v1.10,2013-06-24 14:56:00,
2013-06-24 11:02:00,85.6,71.4,29.91,West,281,1.7,6.0,63,-99.99,,,-99.99,PWS SA v1.10,2013-06-24 15:02:00,
2013-06-24 11:08:00,86.1,72.4,29.91,North,0,0.0,6.0,64,-99.99,,,-99.99,PWS SA v1.10,2013-06-24 15:08:00,
2013-06-24 11:14:00,86.9,71.8,29.91,North,0,0.0,6.0,61,-99.99,,,-99.99,PWS SA v1.10,2013-06-24 15:14:00,
2013-06-24 11:20:00,87.0,72.3,29.91,North,0,0.0,3.0,62,-99.99,,,-99.99,PWS SA v1.10,2013-06-24 15:20:00,
2013-06-24 11:26:00,87.2,71.8,29.90,NW,306,5.1,5.1,60,-99.99,,,-99.99,PWS SA v1.10,2013-06-24 15:26:00,
2013-06-24 11:34:00,87.7,72.1,29.90,North,0,0.0,5.0,60,-99.99,,,-99.99,PWS SA v1.10,2013-06-24 15:34:00,
2013-06-24 11:42:00,87.4,71.5,29.90,WSW,244,1.7,5.0,59,-99.99,,,-99.99,PWS SA v1.10,2013-06-24 15:42:00,
2013-06-24 11:48:00,87.9,71.7,29.90,NW,323,1.7,5.0,59,-99.99,,,-99.99,PWS SA v1.10,2013-06-24 15:48:00,
2013-06-24 11:54:00,88.4,72.2,29.90,West,262,3.4,5.0,59,-99.99,,,-99.99,PWS SA v1.10,2013-06-24 15:54:00,
2013-06-24 12:00:00,88.4,73.0,29.90,North,0,0.0,5.0,60,-99.99,,,-99.99,PWS SA v1.10,2013-06-24 16:00:00,
2013-06-24 12:06:00,88.9,72.2,29.91,North,0,0.0,5.0,58,-99.99,,,-99.99,PWS SA v1.10,2013-06-24 16:06:00,
2013-06-24 12:12:00,89.2,72.7,29.90,SSE,164,3.4,5.0,58,-99.99,,,-99.99,PWS SA v1.10,2013-06-24 16:12:00,
2013-06-24 12:18:00,89.5,73.2,29.90,North,0,0.0,3.0,58,-99.99,,,-99.99,PWS SA v1.10,2013-06-24 16:18:00,
2013-06-24 12:24:00,89.3,72.3,29.90,North,0,0.0,3.0,58,-99.99,,,-99.99,PWS SA v1.10,2013-06-24 16:24:00,
2013-06-24 12:30:00,89.9,72.7,29.91,North,0,0.0,1.0,57,-99.99,,,-99.99,PWS SA v1.10,2013-06-24 16:30:00,
2013-06-24 12:36:00,90.4,73.1,29.91,North,0,0.0,3.0,57,-99.99,,,-99.99,PWS SA v1.10,2013-06-24 16:36:00,
2013-06-24 12:42:00,90.5,72.5,29.90,NW,304,1.7,3.0,56,-99.99,,,-99.99,PWS SA v1.10,2013-06-24 16:42:00,
2013-06-24 12:48:00,91.0,73.8,29.90,North,0,0.0,3.0,57,-99.99,,,-99.99,PWS SA v1.10,2013-06-24 16:48:00,
2013-06-24 12:54:00,91.0,73.6,29.90,North,0,0.0,3.0,57,-99.99,,,-99.99,PWS SA v1.10,2013-06-24 16:54:00,
2013-06-24 13:00:00,91.1,73.5,29.90,North,0,0.0,6.0,56,-99.99,,,-99.99,PWS SA v1.10,2013-06-24 17:00:00,
2013-06-24 13:10:00,91.7,73.2,29.89,North,0,0.0,6.0,54,-99.99,,,-99.99,PWS SA v1.10,2013-06-24 17:10:00,
2013-06-24 13:16:00,91.6,71.8,29.90,WSW,240,1.7,5.0,52,-99.99,,,-99.99,PWS SA v1.10,2013-06-24 17:16:00,
2013-06-24 13:24:00,92.0,73.0,29.89,North,0,0.0,5.0,54,-99.99,,,-99.99,PWS SA v1.10,2013-06-24 17:24:00,
2013-06-24 13:30:00,92.3,72.4,29.89,North,0,0.0,3.0,52,-99.99,,,-99.99,PWS SA v1.10,2013-06-24 17:30:00,
2013-06-24 13:36:00,92.0,72.0,29.88,West,263,1.7,6.0,52,-99.99,,,-99.99,PWS SA v1.10,2013-06-24 17:36:00,
2013-06-24 13:42:00,92.5,72.7,29.89,North,0,0.0,6.0,53,-99.99,,,-99.99,PWS SA v1.10,2013-06-24 17:42:00,
2013-06-24 13:48:00,92.8,72.3,29.88,North,0,0.0,6.0,51,-99.99,,,-99.99,PWS SA v1.10,2013-06-24 17:48:00,
2013-06-24 13:54:00,92.8,72.5,29.88,North,0,0.0,5.0,51,-99.99,,,-99.99,PWS SA v1.10,2013-06-24 17:54:00,
2013-06-24 14:00:00,92.8,72.1,29.88,North,0,0.0,5.0,51,-99.99,,,-99.99,PWS SA v1.10,2013-06-24 18:00:00,
2013-06-24 14:06:00,93.5,73.7,29.88,North,355,1.7,1.7,52,-99.99,,,-99.99,PWS SA v1.10,2013-06-24 18:06:00,
2013-06-24 14:12:00,93.4,73.8,29.88,SW,223,5.1,5.1,53,-99.99,,,-99.99,PWS SA v1.10,2013-06-24 18:12:00,
2013-06-24 14:18:00,92.9,72.8,29.88,North,0,0.0,5.0,51,-99.99,,,-99.99,PWS SA v1.10,2013-06-24 18:18:00,
2013-06-24 14:26:00,93.2,73.0,29.87,North,0,0.0,6.0,52,-99.99,,,-99.99,PWS SA v1.10,2013-06-24 18:26:00,
2013-06-24 14:34:00,93.2,73.4,29.87,North,0,0.0,6.0,53,-99.99,,,-99.99,PWS SA v1.10,2013-06-24 18:34:00,
2013-06-24 14:40:00,93.5,72.0,29.87,North,0,0.0,5.0,50,-99.99,,,-99.99,PWS SA v1.10,2013-06-24 18:40:00,
2013-06-24 14:46:00,94.2,70.7,29.87,NNE,18,1.7,5.0,47,-99.99,,,-99.99,PWS SA v1.10,2013-06-24 18:46:00,
2013-06-24 14:52:00,94.2,71.5,29.87,North,0,0.0,5.0,48,-99.99,,,-99.99,PWS SA v1.10,2013-06-24 18:52:00,
2013-06-24 14:58:00,94.4,72.6,29.86,NNW,340,3.4,3.4,50,-99.99,,,-99.99,PWS SA v1.10,2013-06-24 18:58:00,
2013-06-24 15:06:00,93.5,71.5,29.86,NW,313,5.1,5.1,49,-99.99,,,-99.99,PWS SA v1.10,2013-06-24 19:06:00,
2013-06-24 15:12:00,93.5,72.3,29.86,North,0,0.0,5.0,50,-99.99,,,-99.99,PWS SA v1.10,2013-06-24 19:12:00,
2013-06-24 15:22:00,92.4,71.6,29.86,North,0,0.0,5.0,51,-99.99,,,-99.99,PWS SA v1.10,2013-06-24 19:22:00,
2013-06-24 15:28:00,92.0,72.1,29.85,North,0,0.0,5.0,52,-99.99,,,-99.99,PWS SA v1.10,2013-06-24 19:28:00,
2013-06-24 15:34:00,91.7,71.5,29.85,North,0,0.0,5.0,52,-99.99,,,-99.99,PWS SA v1.10,2013-06-24 19:34:00,
2013-06-24 15:40:00,91.2,71.0,29.85,North,0,0.0,5.0,52,-99.99,,,-99.99,PWS SA v1.10,2013-06-24 19:40:00,
2013-06-24 15:46:00,90.9,71.0,29.85,North,0,0.0,5.0,52,-99.99,,,-99.99,PWS SA v1.10,2013-06-24 19:46:00,
2013-06-24 15:52:00,90.8,71.5,29.84,North,0,0.0,3.0,53,-99.99,,,-99.99,PWS SA v1.10,2013-06-24 19:52:00,
2013-06-24 16:00:00,90.6,71.2,29.84,North,0,0.0,3.0,53,-99.99,,,-99.99,PWS SA v1.10,2013-06-24 20:00:00,
2013-06-24 16:06:00,90.7,71.0,29.84,West,274,3.4,3.4,53,-99.99,,,-99.99,PWS SA v1.10,2013-06-24 20:06:00,
2013-06-24 16:12:00,90.3,71.1,29.84,North,0,0.0,3.0,53,-99.99,,,-99.99,PWS SA v1.10,2013-06-24 20:12:00,
2013-06-24 16:18:00,90.5,71.5,29.84,North,0,0.0,3.0,54,-99.99,,,-99.99,PWS SA v1.10,2013-06-24 20:18:00,
2013-06-24 16:24:00,90.3,71.6,29.83,North,0,0.0,3.0,54,-99.99,,,-99.99,PWS SA v1.10,2013-06-24 20:24:00,
2013-06-24 16:30:00,90.1,71.8,29.83,North,0,0.0,3.0,55,-99.99,,,-99.99,PWS SA v1.10,2013-06-24 20:30:00,
2013-06-24 16:36:00,89.7,71.8,29.84,North,0,0.0,3.0,56,-99.99,,,-99.99,PWS SA v1.10,2013-06-24 20:36:00,
2013-06-24 16:42:00,89.9,72.5,29.83,North,0,0.0,3.0,57,-99.99,,,-99.99,PWS SA v1.10,2013-06-24 20:42:00,
2013-06-24 16:48:00,90.1,71.8,29.82,North,0,0.0,3.0,55,-99.99,,,-99.99,PWS SA v1.10,2013-06-24 20:48:00,
2013-06-24 16:54:00,90.1,70.9,29.82,NNW,336,6.8,6.8,54,-99.99,,,-99.99,PWS SA v1.10,2013-06-24 20:54:00,
2013-06-24 17:00:00,89.7,71.4,29.83,South,184,1.7,6.0,55,-99.99,,,-99.99,PWS SA v1.10,2013-06-24 21:00:00,
2013-06-24 17:06:00,89.4,71.3,29.82,North,0,0.0,6.0,55,-99.99,,,-99.99,PWS SA v1.10,2013-06-24 21:06:00,
2013-06-24 17:12:00,89.1,71.8,29.82,North,0,0.0,3.0,56,-99.99,,,-99.99,PWS SA v1.10,2013-06-24 21:12:00,
2013-06-24 17:18:00,89.0,72.3,29.83,North,0,0.0,0.0,58,-99.99,,,-99.99,PWS SA v1.10,2013-06-24 21:18:00,
2013-06-24 17:26:00,88.8,72.1,29.83,North,0,0.0,1.0,58,-99.99,,,-99.99,PWS SA v1.10,2013-06-24 21:26:00,
2013-06-24 17:32:00,88.8,72.0,29.83,WSW,258,1.7,1.7,58,-99.99,,,-99.99,PWS SA v1.10,2013-06-24 21:32:00,
2013-06-24 17:40:00,88.2,72.3,29.82,North,0,0.0,1.0,59,-99.99,,,-99.99,PWS SA v1.10,2013-06-24 21:40:00,
2013-06-24 17:46:00,88.3,72.7,29.82,North,0,0.0,1.0,60,-99.99,,,-99.99,PWS SA v1.10,2013-06-24 21:46:00,
2013-06-24 17:52:00,88.8,72.5,29.82,North,0,0.0,1.0,59,-99.99,,,-99.99,PWS SA v1.10,2013-06-24 21:52:00,
2013-06-24 17:58:00,88.3,72.5,29.82,NW,309,6.8,6.8,59,-99.99,,,-99.99,PWS SA v1.10,2013-06-24 21:58:00,
2013-06-24 18:04:00,87.8,72.0,29.82,North,0,0.0,6.0,59,-99.99,,,-99.99,PWS SA v1.10,2013-06-24 22:04:00,
2013-06-24 18:12:00,87.4,72.0,29.83,NNW,343,5.1,6.0,60,-99.99,,,-99.99,PWS SA v1.10,2013-06-24 22:12:00,
2013-06-24 18:18:00,87.1,72.0,29.82,North,0,0.0,5.0,60,-99.99,,,-99.99,PWS SA v1.10,2013-06-24 22:18:00,
2013-06-24 18:30:00,86.6,72.2,29.83,North,0,0.0,1.0,62,-99.99,,,-99.99,PWS SA v1.10,2013-06-24 22:30:00,
2013-06-24 18:38:00,86.1,72.9,29.84,North,0,0.0,1.0,65,-99.99,,,-99.99,PWS SA v1.10,2013-06-24 22:38:00,
2013-06-24 18:44:00,86.0,72.8,29.83,North,0,0.0,0.0,64,-99.99,,,-99.99,PWS SA v1.10,2013-06-24 22:44:00,
2013-06-24 18:50:00,86.0,72.5,29.84,North,0,0.0,0.0,64,-99.99,,,-99.99,PWS SA v1.10,2013-06-24 22:50:00,
2013-06-24 18:56:00,85.6,73.3,29.84,North,0,0.0,0.0,67,-99.99,,,-99.99,PWS SA v1.10,2013-06-24 22:56:00,
2013-06-24 19:02:00,85.2,73.6,29.84,North,0,0.0,0.0,68,-99.99,,,-99.99,PWS SA v1.10,2013-06-24 23:02:00,
2013-06-24 19:08:00,85.1,73.6,29.84,North,0,0.0,0.0,68,-99.99,,,-99.99,PWS SA v1.10,2013-06-24 23:08:00,
2013-06-24 19:14:00,84.9,73.7,29.83,North,0,0.0,0.0,69,-99.99,,,-99.99,PWS SA v1.10,2013-06-24 23:14:00,
2013-06-24 19:20:00,84.9,72.9,29.83,North,0,0.0,0.0,68,-99.99,,,-99.99,PWS SA v1.10,2013-06-24 23:20:00,
2013-06-24 19:26:00,84.8,73.0,29.83,North,0,0.0,0.0,68,-99.99,,,-99.99,PWS SA v1.10,2013-06-24 23:26:00,
2013-06-24 19:34:00,84.8,72.7,29.84,North,0,0.0,0.0,68,-99.99,,,-99.99,PWS SA v1.10,2013-06-24 23:34:00,
2013-06-24 19:40:00,84.5,72.9,29.84,North,0,0.0,3.0,68,-99.99,,,-99.99,PWS SA v1.10,2013-06-24 23:40:00,
2013-06-24 19:46:00,84.6,72.5,29.84,North,0,0.0,3.0,67,-99.99,,,-99.99,PWS SA v1.10,2013-06-24 23:46:00,
2013-06-24 19:52:00,84.4,72.2,29.83,North,0,0.0,3.0,67,-99.99,,,-99.99,PWS SA v1.10,2013-06-24 23:52:00,
2013-06-24 19:58:00,84.5,72.3,29.84,North,0,0.0,0.0,67,-99.99,,,-99.99,PWS SA v1.10,2013-06-24 23:58:00,
2013-06-24 20:04:00,84.2,72.3,29.85,North,356,5.1,5.1,67,-99.99,,,-99.99,PWS SA v1.10,2013-06-25 00:04:00,
2013-06-24 20:10:00,83.9,69.3,29.87,NNW,330,1.7,5.0,62,-99.99,,,-99.99,PWS SA v1.10,2013-06-25 00:10:00,
2013-06-24 20:16:00,83.5,67.0,29.87,NW,323,3.4,5.0,58,-99.99,,,-99.99,PWS SA v1.10,2013-06-25 00:16:00,
2013-06-24 20:22:00,82.9,67.2,29.89,North,0,0.0,5.0,59,-99.99,,,-99.99,PWS SA v1.10,2013-06-25 00:22:00,
2013-06-24 20:28:00,82.0,68.3,29.89,North,0,0.0,3.0,62,-99.99,,,-99.99,PWS SA v1.10,2013-06-25 00:28:00,
2013-06-24 20:34:00,80.8,70.2,29.90,ENE,78,1.7,1.7,69,-99.99,,,-99.99,PWS SA v1.10,2013-06-25 00:34:00,
2013-06-24 20:40:00,79.0,70.5,29.90,North,0,0.0,1.0,73,-99.99,,,-99.99,PWS SA v1.10,2013-06-25 00:40:00,
2013-06-24 20:46:00,77.5,71.1,29.89,North,0,0.0,1.0,79,-99.99,,,-99.99,PWS SA v1.10,2013-06-25 00:46:00,
2013-06-24 20:52:00,76.7,71.3,29.89,North,0,0.0,0.0,82,-99.99,,,-99.99,PWS SA v1.10,2013-06-25 00:52:00,
2013-06-24 20:58:00,76.3,71.6,29.89,North,0,0.0,0.0,84,-99.99,,,-99.99,PWS SA v1.10,2013-06-25 00:58:00,
2013-06-24 21:14:00,75.7,71.2,29.92,North,0,0.0,0.0,86,-99.99,,,-99.99,PWS SA v1.10,2013-06-25 01:14:00,
2013-06-24 21:20:00,75.3,70.5,29.92,North,0,0.0,1.0,85,-99.99,,,-99.99,PWS SA v1.10,2013-06-25 01:20:00,
2013-06-24 21:26:00,75.2,69.5,29.93,North,0,0.0,1.0,82,-99.99,,,-99.99,PWS SA v1.10,2013-06-25 01:26:00,
2013-06-24 21:32:00,75.2,69.3,29.92,North,0,0.0,1.0,82,-99.99,,,-99.99,PWS SA v1.10,2013-06-25 01:32:00,
2013-06-24 21:38:00,74.8,70.1,29.92,North,0,0.0,0.0,84,-99.99,,,-99.99,PWS SA v1.10,2013-06-25 01:38:00,
2013-06-24 21:44:00,74.2,70.3,29.92,North,0,0.0,0.0,86,-99.99,,,-99.99,PWS SA v1.10,2013-06-25 01:44:00,
2013-06-24 21:50:00,73.6,70.7,29.91,North,0,0.0,1.0,89,-99.99,,,-99.99,PWS SA v1.10,2013-06-25 01:50:00,
2013-06-24 21:56:00,73.0,70.7,29.91,North,0,0.0,1.0,91,-99.99,,,-99.99,PWS SA v1.10,2013-06-25 01:56:00,
2013-06-24 22:02:00,72.6,70.5,29.91,North,0,0.0,1.0,92,-99.99,,,-99.99,PWS SA v1.10,2013-06-25 02:02:00,
2013-06-24 22:08:00,72.4,70.7,29.89,North,0,0.0,0.0,93,-99.99,,,-99.99,PWS SA v1.10,2013-06-25 02:08:00,
2013-06-24 22:14:00,72.1,71.0,29.89,North,0,0.0,0.0,95,-99.99,,,-99.99,PWS SA v1.10,2013-06-25 02:14:00,
2013-06-24 22:22:00,72.5,70.9,29.90,North,0,0.0,0.0,95,-99.99,,,-99.99,PWS SA v1.10,2013-06-25 02:22:00,
2013-06-24 22:28:00,72.3,70.7,29.90,North,0,0.0,0.0,95,-99.99,,,-99.99,PWS SA v1.10,2013-06-25 02:28:00,
2013-06-24 22:34:00,72.2,70.9,29.89,North,0,0.0,1.0,95,-99.99,,,-99.99,PWS SA v1.10,2013-06-25 02:34:00,
2013-06-24 22:40:00,72.2,71.0,29.90,North,0,0.0,1.0,95,-99.99,,,-99.99,PWS SA v1.10,2013-06-25 02:40:00,
2013-06-24 22:46:00,72.0,70.9,29.90,North,0,0.0,1.0,96,-99.99,,,-99.99,PWS SA v1.10,2013-06-25 02:46:00,
2013-06-24 22:52:00,72.1,71.0,29.89,North,0,0.0,0.0,95,-99.99,,,-99.99,PWS SA v1.10,2013-06-25 02:52:00,
2013-06-24 22:58:00,71.9,70.7,29.89,North,0,0.0,0.0,95,-99.99,,,-99.99,PWS SA v1.10,2013-06-25 02:58:00,
2013-06-24 23:06:00,71.7,70.9,29.89,North,0,0.0,0.0,97,-99.99,,,-99.99,PWS SA v1.10,2013-06-25 03:06:00,
2013-06-24 23:12:00,71.7,70.8,29.89,North,0,0.0,0.0,96,-99.99,,,-99.99,PWS SA v1.10,2013-06-25 03:12:00,
2013-06-24 23:18:00,71.7,70.8,29.89,North,0,0.0,0.0,96,-99.99,,,-99.99,PWS SA v1.10,2013-06-25 03:18:00,
2013-06-24 23:30:00,71.5,70.5,29.88,North,0,0.0,0.0,96,-99.99,,,-99.99,PWS SA v1.10,2013-06-25 03:30:00,
2013-06-24 23:36:00,71.5,70.6,29.88,North,0,0.0,0.0,96,-99.99,,,-99.99,PWS SA v1.10,2013-06-25 03:36:00,
2013-06-24 23:42:00,71.5,70.6,29.88,North,0,0.0,0.0,96,-99.99,,,-99.99,PWS SA v1.10,2013-06-25 03:42:00,
2013-06-24 23:48:00,71.5,70.6,29.88,North,0,0.0,0.0,96,-99.99,,,-99.99,PWS SA v1.10,2013-06-25 03:48:00,
2013-06-24 23:54:00,71.3,70.4,29.87,North,0,0.0,0.0,96,-99.99,,,-99.99,PWS SA v1.10,2013-06-25 03:54:00,